createdAt,value
2024-02-20T00:02:06.788Z,90.59
2024-02-20T00:04:34.136Z,89.89
2024-02-20T00:07:01.319Z,89.00
2024-02-20T00:09:28.562Z,89.74
2024-02-20T00:11:55.637Z,89.31
2024-02-20T00:14:23.036Z,89.85
2024-02-20T00:16:51.101Z,90.30
2024-02-20T00:19:18.750Z,89.34
2024-02-20T00:21:46.810Z,90.50
2024-02-20T00:24:14.271Z,90.47
2024-02-20T00:26:41.465Z,89.96
2024-02-20T00:29:11.375Z,89.75
2024-02-20T00:31:39.683Z,90.18
2024-02-20T00:34:07.002Z,90.45
2024-02-20T00:36:34.378Z,90.17
2024-02-20T00:39:01.404Z,88.90
2024-02-20T00:41:28.584Z,90.42
2024-02-20T00:43:55.677Z,89.90
2024-02-20T00:46:24.111Z,90.52
2024-02-20T00:48:52.389Z,90.27
2024-02-20T00:51:21.023Z,90.40
2024-02-20T00:53:48.346Z,90.51
2024-02-20T00:56:15.738Z,91.17
2024-02-20T00:58:46.577Z,90.53
2024-02-20T01:01:14.182Z,91.98
2024-02-20T01:03:45.033Z,91.09
2024-02-20T01:06:12.652Z,91.21
2024-02-20T01:08:40.638Z,92.16
2024-02-20T01:11:07.907Z,92.19
2024-02-20T01:13:35.216Z,90.77
2024-02-20T01:16:02.826Z,90.61
2024-02-20T01:18:30.058Z,91.50
2024-02-20T01:20:57.136Z,91.88
2024-02-20T01:23:24.253Z,91.42
2024-02-20T01:25:51.319Z,91.77
2024-02-20T01:28:18.907Z,91.08
2024-02-20T01:30:46.842Z,92.22
2024-02-20T01:33:14.200Z,91.38
2024-02-20T01:35:42.532Z,90.76
2024-02-20T01:38:09.906Z,91.45
2024-02-20T01:40:39.161Z,91.10
2024-02-20T01:43:07.008Z,91.85
2024-02-20T01:45:34.277Z,91.53
2024-02-20T01:48:06.000Z,90.25
2024-02-20T01:50:35.336Z,89.98
2024-02-20T01:53:03.676Z,90.81
2024-02-20T01:55:32.243Z,91.35
2024-02-20T01:57:59.607Z,90.76
2024-02-20T02:00:26.780Z,90.71
2024-02-20T02:02:54.233Z,90.79
2024-02-20T02:05:21.522Z,90.91
2024-02-20T02:10:17.628Z,90.17
2024-02-20T02:12:44.873Z,91.06
2024-02-20T02:15:11.978Z,91.13
2024-02-20T02:17:39.436Z,91.09
2024-02-20T02:20:07.734Z,90.30
2024-02-20T02:22:35.804Z,90.24
2024-02-20T02:25:04.566Z,90.79
2024-02-20T02:27:31.888Z,91.12
2024-02-20T02:29:59.031Z,92.36
2024-02-20T02:32:26.108Z,91.66
2024-02-20T02:34:53.325Z,91.07
2024-02-20T02:37:20.406Z,91.37
2024-02-20T02:39:47.526Z,91.70
2024-02-20T02:42:14.601Z,91.98
2024-02-20T02:44:41.936Z,91.91
2024-02-20T02:47:09.953Z,91.72
2024-02-20T02:49:37.207Z,91.08
2024-02-20T02:52:05.544Z,90.83
2024-02-20T02:54:32.743Z,90.28
2024-02-20T02:56:59.848Z,90.40
2024-02-20T02:59:26.917Z,90.83
2024-02-20T03:01:54.140Z,90.91
2024-02-20T03:04:21.297Z,90.60
2024-02-20T03:06:49.139Z,91.69
2024-02-20T03:09:19.044Z,92.13
2024-02-20T03:11:46.201Z,93.21
2024-02-20T03:14:14.495Z,91.97
2024-02-20T03:16:41.695Z,91.08
2024-02-20T03:19:13.767Z,90.87
2024-02-20T03:21:40.885Z,92.94
2024-02-20T03:24:08.058Z,91.50
2024-02-20T03:26:40.272Z,91.36
2024-02-20T03:29:13.661Z,91.18
2024-02-20T03:31:40.871Z,91.63
2024-02-20T03:34:08.232Z,91.71
2024-02-20T03:36:39.539Z,90.84
2024-02-20T03:39:06.586Z,93.07
2024-02-20T03:41:33.636Z,92.93
2024-02-20T03:44:00.688Z,92.55
2024-02-20T03:46:28.114Z,92.48
2024-02-20T03:48:55.330Z,93.38
2024-02-20T03:51:22.544Z,93.61
2024-02-20T03:53:49.707Z,92.95
2024-02-20T03:56:16.816Z,93.36
2024-02-20T03:58:45.330Z,92.85
2024-02-20T04:01:12.630Z,92.06
2024-02-20T04:03:39.832Z,93.03
2024-02-20T04:06:09.492Z,92.44
2024-02-20T04:08:36.783Z,92.32
2024-02-20T04:11:04.222Z,92.06
2024-02-20T04:13:31.358Z,92.55
2024-02-20T04:15:58.530Z,91.77
2024-02-20T04:18:25.751Z,91.31
2024-02-20T04:20:52.925Z,92.00
2024-02-20T04:23:20.045Z,91.63
2024-02-20T04:25:47.157Z,91.42
2024-02-20T04:28:15.730Z,91.42
2024-02-20T04:30:45.784Z,91.17
2024-02-20T04:33:12.986Z,91.80
2024-02-20T04:35:40.095Z,91.14
2024-02-20T04:38:07.253Z,92.44
2024-02-20T04:40:34.333Z,92.12
2024-02-20T04:43:01.588Z,91.16
2024-02-20T04:45:28.724Z,91.55
2024-02-20T04:47:55.809Z,91.08
2024-02-20T04:50:23.221Z,91.69
2024-02-20T04:52:50.272Z,92.53
2024-02-20T04:55:17.389Z,91.79
2024-02-20T04:57:44.449Z,92.18
2024-02-20T05:00:12.256Z,92.34
2024-02-20T05:02:40.213Z,92.56
2024-02-20T05:05:08.079Z,92.57
2024-02-20T05:07:35.302Z,92.46
2024-02-20T05:10:02.527Z,92.85
2024-02-20T05:12:29.643Z,92.97
2024-02-20T05:14:56.761Z,93.06
2024-02-20T05:17:23.994Z,92.69
2024-02-20T05:19:51.185Z,91.94
2024-02-20T05:22:18.489Z,91.60
2024-02-20T05:24:45.726Z,92.18
2024-02-20T05:27:13.173Z,91.11
2024-02-20T05:29:40.275Z,91.22
2024-02-20T05:32:07.454Z,91.67
2024-02-20T05:34:35.033Z,92.10
2024-02-20T05:37:02.313Z,93.12
2024-02-20T05:39:29.616Z,92.03
2024-02-20T05:41:57.003Z,92.10
2024-02-20T05:44:24.049Z,91.13
2024-02-20T05:46:51.081Z,91.81
2024-02-20T05:49:18.528Z,91.83
2024-02-20T05:51:47.310Z,92.06
2024-02-20T05:54:15.723Z,92.37
2024-02-20T05:56:44.655Z,92.36
2024-02-20T05:59:15.748Z,92.20
2024-02-20T06:01:42.817Z,91.59
2024-02-20T06:04:14.179Z,91.47
2024-02-20T06:06:43.232Z,91.31
2024-02-20T06:09:14.559Z,91.29
2024-02-20T06:11:41.665Z,91.73
2024-02-20T06:14:08.747Z,91.65
2024-02-20T06:16:39.901Z,91.24
2024-02-20T06:19:07.122Z,91.88
2024-02-20T06:21:34.898Z,91.46
2024-02-20T06:24:01.938Z,91.91
2024-02-20T06:26:31.569Z,91.62
2024-02-20T06:28:58.661Z,92.32
2024-02-20T06:31:25.873Z,92.64
2024-02-20T06:33:53.019Z,92.02
2024-02-20T06:36:20.279Z,91.47
2024-02-20T06:38:47.430Z,91.61
2024-02-20T06:41:14.659Z,91.81
2024-02-20T06:43:41.990Z,92.03
2024-02-20T06:46:09.200Z,91.04
2024-02-20T06:48:36.304Z,91.79
2024-02-20T06:51:04.248Z,91.99
2024-02-20T06:53:31.349Z,92.27
2024-02-20T06:55:58.489Z,92.47
2024-02-20T06:58:28.211Z,91.61
2024-02-20T07:00:55.610Z,91.96
2024-02-20T07:03:22.760Z,92.55
2024-02-20T07:05:50.039Z,92.36
2024-02-20T07:08:18.861Z,91.95
2024-02-20T07:10:46.222Z,91.98
2024-02-20T07:13:13.790Z,92.05
2024-02-20T07:15:41.067Z,92.31
2024-02-20T07:18:08.878Z,91.00
2024-02-20T07:20:37.826Z,92.14
2024-02-20T07:23:05.145Z,91.42
2024-02-20T07:25:32.594Z,91.07
2024-02-20T07:27:59.796Z,92.33
2024-02-20T07:30:31.592Z,91.78
2024-02-20T07:32:59.369Z,91.43
2024-02-20T07:35:26.968Z,91.94
2024-02-20T07:37:54.582Z,91.89
2024-02-20T07:40:21.861Z,90.89
2024-02-20T07:42:49.104Z,91.08
2024-02-20T07:45:17.267Z,91.46
2024-02-20T07:47:44.439Z,92.32
2024-02-20T07:50:11.740Z,92.71
2024-02-20T07:52:39.168Z,91.82
2024-02-20T07:55:06.808Z,92.13
2024-02-20T07:57:34.509Z,91.72
2024-02-20T08:00:02.636Z,92.09
2024-02-20T08:02:39.567Z,91.75
2024-02-20T08:05:07.207Z,91.83
2024-02-20T08:07:35.687Z,90.90
2024-02-20T08:10:03.664Z,90.50
2024-02-20T08:12:30.816Z,90.57
2024-02-20T08:14:57.932Z,90.42
2024-02-20T08:17:25.112Z,91.37
2024-02-20T08:19:52.315Z,89.84
2024-02-20T08:22:19.419Z,90.63
2024-02-20T08:24:46.443Z,89.99
2024-02-20T08:27:13.613Z,90.29
2024-02-20T08:29:40.726Z,89.54
2024-02-20T08:32:08.164Z,89.48
2024-02-20T08:34:35.236Z,89.97
2024-02-20T08:37:02.332Z,90.09
2024-02-20T08:39:29.857Z,89.95
2024-02-20T08:41:57.107Z,89.87
2024-02-20T08:44:27.221Z,89.97
2024-02-20T08:46:55.797Z,89.92
2024-02-20T08:49:22.986Z,91.02
2024-02-20T08:51:50.113Z,90.00
2024-02-20T08:54:17.362Z,90.17
2024-02-20T08:56:44.569Z,90.42
2024-02-20T08:59:13.782Z,91.35
2024-02-20T09:01:41.739Z,91.06
2024-02-20T09:04:15.120Z,90.68
2024-02-20T09:06:46.998Z,91.00
2024-02-20T09:09:14.151Z,91.19
2024-02-20T09:11:41.349Z,91.71
2024-02-20T09:14:08.580Z,91.68
2024-02-20T09:16:39.690Z,91.50
2024-02-20T09:19:07.269Z,90.47
2024-02-20T09:21:34.389Z,90.14
2024-02-20T09:24:01.506Z,91.26
2024-02-20T09:26:28.850Z,90.64
2024-02-20T09:28:55.997Z,90.89
2024-02-20T09:31:23.204Z,90.19
2024-02-20T09:33:50.987Z,90.50
2024-02-20T09:36:18.076Z,90.24
2024-02-20T09:38:45.122Z,89.20
2024-02-20T09:41:22.509Z,90.12
2024-02-20T09:43:49.775Z,89.23
2024-02-20T09:46:20.567Z,89.33
2024-02-20T09:48:50.577Z,89.19
2024-02-20T09:51:21.494Z,88.60
2024-02-20T09:53:52.627Z,87.61
2024-02-20T09:56:19.972Z,88.21
2024-02-20T09:58:47.619Z,88.78
2024-02-20T10:01:16.525Z,87.80
2024-02-20T10:03:46.058Z,87.68
2024-02-20T10:06:15.419Z,86.71
2024-02-20T10:08:43.105Z,87.80
2024-02-20T10:11:10.310Z,88.61
2024-02-20T10:13:46.839Z,86.34
2024-02-20T10:16:17.578Z,88.53
2024-02-20T10:18:46.077Z,87.73
2024-02-20T10:21:16.226Z,89.56
2024-02-20T10:23:43.628Z,89.55
2024-02-20T10:26:12.959Z,89.60
2024-02-20T10:28:40.527Z,87.97
2024-02-20T10:31:07.840Z,88.14
2024-02-20T10:33:36.111Z,89.69
2024-02-20T10:36:04.749Z,88.98
2024-02-20T10:38:31.981Z,89.44
2024-02-20T10:40:59.713Z,88.36
2024-02-20T10:43:27.636Z,88.99
2024-02-20T10:45:54.861Z,88.52
2024-02-20T10:48:30.747Z,87.33
2024-02-20T10:51:01.139Z,85.54
2024-02-20T10:53:29.258Z,85.49
2024-02-20T10:55:58.295Z,86.24
2024-02-20T10:58:28.438Z,85.02
2024-02-20T11:00:56.691Z,83.81
2024-02-20T11:03:24.672Z,85.41
2024-02-20T11:05:53.352Z,84.55
2024-02-20T11:08:30.440Z,83.77
2024-02-20T11:11:13.337Z,82.71
2024-02-20T11:13:41.904Z,81.94
2024-02-20T11:16:13.056Z,81.62
2024-02-20T11:18:53.918Z,82.02
2024-02-20T11:21:28.577Z,80.85
2024-02-20T11:24:12.499Z,77.88
2024-02-20T11:26:43.134Z,79.84
2024-02-20T11:29:16.955Z,79.16
2024-02-20T11:31:44.127Z,78.51
2024-02-20T11:34:22.602Z,78.03
2024-02-20T11:36:50.514Z,76.89
2024-02-20T11:39:17.801Z,76.49
2024-02-20T11:41:48.473Z,77.87
2024-02-20T11:44:16.650Z,75.00
2024-02-20T11:46:55.053Z,76.76
2024-02-20T11:49:22.549Z,74.70
2024-02-20T11:51:49.753Z,72.81
2024-02-20T11:54:21.747Z,73.94
2024-02-20T11:56:48.873Z,75.44
2024-02-20T11:59:17.700Z,74.95
2024-02-20T12:01:45.043Z,76.28
2024-02-20T12:04:14.258Z,76.83
2024-02-20T12:06:41.474Z,76.76
2024-02-20T12:09:16.838Z,76.82
2024-02-20T12:11:53.230Z,75.31
2024-02-20T12:14:20.388Z,77.80
2024-02-20T12:16:50.905Z,78.72
2024-02-20T12:19:29.243Z,78.45
2024-02-20T12:22:04.489Z,79.18
2024-02-20T12:24:32.494Z,78.97
2024-02-20T12:26:59.578Z,80.39
2024-02-20T12:29:27.344Z,81.04
2024-02-20T12:31:54.595Z,80.02
2024-02-20T12:34:24.760Z,80.42
2024-02-20T12:36:55.969Z,80.75
2024-02-20T12:39:26.256Z,79.63
2024-02-20T12:41:53.349Z,79.58
2024-02-20T12:44:20.417Z,76.50
2024-02-20T12:46:47.509Z,77.60
2024-02-20T12:49:14.939Z,77.49
2024-02-20T12:51:42.053Z,75.82
2024-02-20T12:54:13.904Z,76.99
2024-02-20T12:56:40.963Z,76.91
2024-02-20T12:59:13.758Z,75.83
2024-02-20T13:01:40.907Z,77.29
2024-02-20T13:04:13.879Z,77.12
2024-02-20T13:06:41.552Z,75.12
2024-02-20T13:09:13.897Z,75.83
2024-02-20T13:11:41.136Z,75.90
2024-02-20T13:14:08.466Z,74.88
2024-02-20T13:16:45.936Z,75.68
2024-02-20T13:19:14.117Z,76.54
2024-02-20T13:21:44.238Z,78.42
2024-02-20T13:24:13.842Z,77.21
2024-02-20T13:26:40.997Z,76.82
2024-02-20T13:29:12.242Z,77.53
2024-02-20T13:31:39.893Z,80.29
2024-02-20T13:34:11.027Z,79.03
2024-02-20T13:36:39.931Z,80.99
2024-02-20T13:39:08.097Z,79.52
2024-02-20T13:41:40.119Z,79.58
2024-02-20T13:44:07.384Z,80.20
2024-02-20T13:46:34.554Z,80.12
2024-02-20T13:49:02.431Z,79.88
2024-02-20T13:51:30.754Z,80.28
2024-02-20T13:53:59.823Z,80.22
2024-02-20T13:56:29.263Z,78.99
2024-02-20T13:58:57.109Z,80.03
2024-02-20T14:01:24.383Z,76.73
2024-02-20T14:03:51.667Z,79.19
2024-02-20T14:06:18.803Z,79.24
2024-02-20T14:08:46.478Z,80.11
2024-02-20T14:11:18.706Z,79.85
2024-02-20T14:13:47.017Z,79.28
2024-02-20T14:16:17.901Z,80.66
2024-02-20T14:18:45.186Z,79.24
2024-02-20T14:21:13.494Z,79.51
2024-02-20T14:23:42.633Z,79.09
2024-02-20T14:26:10.704Z,79.01
2024-02-20T14:28:41.152Z,78.48
2024-02-20T14:31:10.295Z,78.02
2024-02-20T14:33:38.423Z,78.01
2024-02-20T14:36:06.759Z,77.98
2024-02-20T14:38:33.788Z,77.90
2024-02-20T14:41:00.897Z,77.82
2024-02-20T14:43:29.136Z,78.42
2024-02-20T14:45:56.641Z,79.43
2024-02-20T14:48:23.773Z,79.75
2024-02-20T14:50:50.980Z,78.96
2024-02-20T14:53:18.949Z,79.26
2024-02-20T14:55:48.400Z,78.68
2024-02-20T14:58:16.275Z,79.17
2024-02-20T15:00:45.261Z,78.17
2024-02-20T15:03:12.422Z,79.35
2024-02-20T15:05:39.621Z,77.34
2024-02-20T15:08:07.103Z,79.23
2024-02-20T15:10:34.454Z,79.17
2024-02-20T15:13:01.582Z,79.12
2024-02-20T15:15:28.793Z,77.99
2024-02-20T15:17:55.978Z,79.38
2024-02-20T15:20:23.230Z,78.94
2024-02-20T15:22:50.496Z,78.54
2024-02-20T15:25:18.171Z,78.08
2024-02-20T15:27:48.031Z,78.03
2024-02-20T15:30:16.549Z,78.10
2024-02-20T15:32:45.175Z,78.46
2024-02-20T15:35:12.895Z,78.02
2024-02-20T15:37:40.867Z,78.59
2024-02-20T15:40:09.311Z,78.65
2024-02-20T15:42:39.393Z,78.59
2024-02-20T15:45:07.049Z,78.46
2024-02-20T15:47:35.480Z,78.42
2024-02-20T15:50:04.388Z,77.88
2024-02-20T15:52:31.868Z,78.34
2024-02-20T15:54:59.137Z,78.46
2024-02-20T15:57:26.190Z,78.57
2024-02-20T15:59:53.633Z,78.50
2024-02-20T16:02:21.879Z,78.31
2024-02-20T16:04:51.488Z,80.05
2024-02-20T16:07:20.396Z,79.42
2024-02-20T16:09:48.582Z,75.80
2024-02-20T16:12:15.682Z,77.55
2024-02-20T16:14:55.566Z,77.91
2024-02-20T16:17:24.102Z,78.46
2024-02-20T16:19:51.328Z,77.23
2024-02-20T16:22:21.677Z,77.88
2024-02-20T16:24:49.861Z,76.40
2024-02-20T16:27:17.401Z,77.18
2024-02-20T16:29:46.942Z,77.13
2024-02-20T16:32:14.172Z,78.38
2024-02-20T16:34:42.431Z,76.12
2024-02-20T16:37:09.801Z,77.55
2024-02-20T16:39:38.072Z,78.18
2024-02-20T16:42:06.657Z,78.63
2024-02-20T16:44:33.688Z,78.40
2024-02-20T16:47:00.980Z,78.56
2024-02-20T16:49:28.264Z,79.84
2024-02-20T16:52:00.382Z,78.89
2024-02-20T16:54:29.224Z,80.52
2024-02-20T16:56:59.458Z,79.74
2024-02-20T16:59:27.822Z,80.73
2024-02-20T17:01:55.073Z,80.67
2024-02-20T17:04:24.198Z,81.14
2024-02-20T17:06:51.388Z,80.71
2024-02-20T17:09:18.978Z,81.36
2024-02-20T17:11:49.074Z,81.51
2024-02-20T17:14:17.361Z,82.01
2024-02-20T17:16:45.522Z,81.04
2024-02-20T17:19:14.492Z,81.81
2024-02-20T17:21:41.622Z,82.11
2024-02-20T17:24:08.702Z,82.20
2024-02-20T17:26:39.950Z,81.50
2024-02-20T17:29:07.090Z,81.58
2024-02-20T17:31:34.765Z,82.67
2024-02-20T17:34:02.285Z,81.96
2024-02-20T17:36:30.250Z,82.00
2024-02-20T17:38:57.459Z,82.48
2024-02-20T17:41:24.771Z,82.96
2024-02-20T17:43:53.914Z,82.26
2024-02-20T17:46:21.784Z,82.35
2024-02-20T17:48:50.651Z,83.38
2024-02-20T17:51:25.020Z,83.28
2024-02-20T17:53:55.292Z,83.35
2024-02-20T17:56:22.471Z,83.59
2024-02-20T17:58:49.699Z,82.47
2024-02-20T18:01:21.378Z,82.84
2024-02-20T18:03:50.031Z,82.48
2024-02-20T18:06:17.921Z,82.56
2024-02-20T18:08:45.382Z,81.51
2024-02-20T18:11:16.191Z,82.51
2024-02-20T18:13:43.630Z,82.55
2024-02-20T18:16:15.181Z,81.30
2024-02-20T18:18:43.085Z,82.29
2024-02-20T18:21:10.358Z,82.02
2024-02-20T18:23:37.913Z,82.12
2024-02-20T18:26:05.040Z,83.58
2024-02-20T18:28:33.430Z,82.52
2024-02-20T18:31:00.866Z,82.32
2024-02-20T18:33:27.907Z,83.40
2024-02-20T18:35:55.059Z,83.64
2024-02-20T18:38:26.567Z,84.01
2024-02-20T18:40:54.453Z,83.52
2024-02-20T18:43:22.321Z,83.29
2024-02-20T18:45:50.037Z,83.86
2024-02-20T18:48:17.294Z,83.26
2024-02-20T18:50:44.572Z,84.82
2024-02-20T18:53:11.917Z,83.59
2024-02-20T18:55:39.075Z,85.44
2024-02-20T18:58:07.622Z,85.16
2024-02-20T19:00:35.007Z,83.40
2024-02-20T19:03:03.140Z,83.45
2024-02-20T19:05:30.446Z,83.17
2024-02-20T19:07:57.711Z,84.80
2024-02-20T19:10:24.916Z,84.64
2024-02-20T19:12:52.596Z,83.70
2024-02-20T19:15:19.752Z,83.40
2024-02-20T19:17:46.942Z,84.96
2024-02-20T19:20:19.392Z,83.74
2024-02-20T19:22:47.287Z,82.92
2024-02-20T19:25:14.830Z,82.05
2024-02-20T19:27:46.451Z,82.46
2024-02-20T19:30:13.668Z,83.02
2024-02-20T19:32:40.761Z,83.29
2024-02-20T19:35:08.049Z,82.93
2024-02-20T19:37:35.780Z,82.84
2024-02-20T19:40:03.090Z,84.41
2024-02-20T19:42:30.896Z,83.21
2024-02-20T19:44:58.302Z,82.38
2024-02-20T19:47:25.516Z,81.79
2024-02-20T19:49:52.798Z,82.62
2024-02-20T19:52:20.111Z,83.08
2024-02-20T19:54:47.220Z,82.38
2024-02-20T19:57:14.662Z,83.10
2024-02-20T19:59:41.802Z,82.96
2024-02-20T20:02:09.122Z,82.61
2024-02-20T20:04:37.496Z,84.35
2024-02-20T20:07:04.959Z,84.79
2024-02-20T20:09:32.274Z,83.03
2024-02-20T20:11:59.505Z,83.64
2024-02-20T20:14:26.581Z,83.89
2024-02-20T20:16:53.798Z,83.74
2024-02-20T20:19:21.113Z,83.38
2024-02-20T20:21:49.242Z,84.80
2024-02-20T20:24:18.968Z,84.02
2024-02-20T20:26:47.071Z,81.48
2024-02-20T20:29:14.649Z,82.53
2024-02-20T20:31:42.549Z,83.07
2024-02-20T20:34:14.349Z,83.61
2024-02-20T20:36:43.959Z,84.15
2024-02-20T20:39:14.048Z,83.38
2024-02-20T20:41:41.668Z,83.02
2024-02-20T20:44:09.069Z,83.34
2024-02-20T20:46:40.144Z,81.54
2024-02-20T20:49:07.957Z,84.08
2024-02-20T20:51:39.967Z,83.30
2024-02-20T20:54:07.071Z,84.97
2024-02-20T20:56:34.618Z,85.43
2024-02-20T20:59:02.526Z,84.24
2024-02-20T21:01:30.878Z,83.08
2024-02-20T21:04:00.869Z,82.62
2024-02-20T21:06:31.544Z,82.68
2024-02-20T21:08:58.873Z,83.71
2024-02-20T21:11:26.853Z,84.30
2024-02-20T21:13:54.142Z,85.66
2024-02-20T21:16:23.462Z,85.53
2024-02-20T21:18:50.877Z,83.80
2024-02-20T21:21:19.615Z,82.82
2024-02-20T21:23:49.433Z,84.37
2024-02-20T21:26:16.511Z,83.78
2024-02-20T21:28:43.649Z,83.73
2024-02-20T21:31:10.799Z,83.00
2024-02-20T21:33:38.177Z,84.29
2024-02-20T21:36:05.929Z,84.65
2024-02-20T21:38:34.124Z,83.26
2024-02-20T21:41:02.046Z,83.67
2024-02-20T21:43:29.379Z,84.41
2024-02-20T21:45:56.564Z,84.41
2024-02-20T21:48:24.157Z,85.21
2024-02-20T21:50:51.280Z,85.94
2024-02-20T21:53:18.467Z,84.95
2024-02-20T21:55:45.625Z,84.19
2024-02-20T21:58:12.809Z,83.85
2024-02-20T22:00:39.999Z,84.42
2024-02-20T22:03:08.074Z,85.72
2024-02-20T22:05:36.408Z,84.57
2024-02-20T22:08:03.719Z,84.03
2024-02-20T22:10:31.855Z,84.14
2024-02-20T22:12:58.945Z,82.99
2024-02-20T22:15:26.031Z,85.36
2024-02-20T22:17:53.264Z,85.89
2024-02-20T22:20:20.468Z,85.40
2024-02-20T22:22:47.621Z,83.10
2024-02-20T22:25:14.750Z,84.73
2024-02-20T22:27:41.901Z,85.61
2024-02-20T22:30:09.951Z,85.25
2024-02-20T22:32:37.076Z,86.06
2024-02-20T22:35:05.154Z,86.21
2024-02-20T22:37:32.810Z,85.44
2024-02-20T22:40:00.035Z,84.49
2024-02-20T22:42:27.059Z,84.48
2024-02-20T22:44:54.209Z,84.88
2024-02-20T22:47:21.615Z,84.93
2024-02-20T22:49:48.862Z,85.31
2024-02-20T22:52:16.054Z,84.78
2024-02-20T22:54:43.072Z,85.12
2024-02-20T22:57:10.101Z,84.46
2024-02-20T22:59:37.391Z,84.25
2024-02-20T23:02:04.938Z,83.56
2024-02-20T23:04:32.188Z,85.00
2024-02-20T23:06:59.298Z,85.92
2024-02-20T23:09:26.450Z,84.92
2024-02-20T23:11:53.687Z,85.89
2024-02-20T23:14:20.800Z,85.42
2024-02-20T23:16:49.568Z,84.93
2024-02-20T23:19:17.048Z,86.45
2024-02-20T23:21:44.197Z,86.93
2024-02-20T23:24:14.525Z,87.75
2024-02-20T23:26:41.555Z,85.63
2024-02-20T23:29:08.610Z,85.12
2024-02-20T23:31:40.514Z,85.65
2024-02-20T23:34:09.280Z,85.71
2024-02-20T23:36:36.436Z,85.97
2024-02-20T23:39:04.596Z,86.38
2024-02-20T23:41:32.394Z,86.57
2024-02-20T23:43:59.962Z,85.69
2024-02-20T23:46:28.115Z,85.29
2024-02-20T23:48:55.227Z,84.94
2024-02-20T23:51:22.379Z,84.83
2024-02-20T23:53:49.496Z,84.33
2024-02-20T23:56:16.757Z,85.58
2024-02-20T23:58:43.854Z,85.25
